createdAt,value
2018-04-06T00:00:33.864Z,4.77
2018-04-06T00:03:02.589Z,4.10
2018-04-06T00:05:31.409Z,7.23
2018-04-06T00:08:00.132Z,4.13
2018-04-06T00:10:28.865Z,4.73
2018-04-06T00:12:57.446Z,4.80
2018-04-06T00:15:27.805Z,9.00
2018-04-06T00:17:56.530Z,8.67
2018-04-06T00:20:25.158Z,9.37
2018-04-06T00:22:54.468Z,6.67
2018-04-06T00:25:23.390Z,12.13
2018-04-06T00:27:52.112Z,7.80
2018-04-06T00:30:20.833Z,4.97
2018-04-06T00:32:49.756Z,5.73
2018-04-06T00:35:18.391Z,5.73
2018-04-06T00:37:47.044Z,5.30
2018-04-06T00:40:15.708Z,5.20
2018-04-06T00:42:44.277Z,5.67
2018-04-06T00:45:13.682Z,5.27
2018-04-06T00:47:42.388Z,5.33
2018-04-06T00:50:11.019Z,4.97
2018-04-06T00:52:39.632Z,5.23
2018-04-06T00:55:08.211Z,5.00
2018-04-06T00:57:37.790Z,5.93
2018-04-06T01:00:06.502Z,5.07
2018-04-06T01:02:35.126Z,4.93
2018-04-06T01:05:03.943Z,5.73
2018-04-06T01:07:32.665Z,5.73
2018-04-06T01:10:01.389Z,5.27
2018-04-06T01:12:30.216Z,5.93
2018-04-06T01:14:58.831Z,4.93
2018-04-06T01:17:27.554Z,6.83
2018-04-06T01:19:56.275Z,5.23
2018-04-06T01:22:25.598Z,5.93
2018-04-06T01:24:54.321Z,5.07
2018-04-06T01:27:23.644Z,4.87
2018-04-06T01:29:52.970Z,5.27
2018-04-06T01:32:21.692Z,5.10
2018-04-06T01:34:50.412Z,5.20
2018-04-06T01:37:19.135Z,6.00
2018-04-06T01:39:48.158Z,4.87
2018-04-06T01:42:16.778Z,5.10
2018-04-06T01:44:45.367Z,5.83
2018-04-06T01:47:14.124Z,5.67
2018-04-06T01:49:42.803Z,19.00
2018-04-06T01:52:11.464Z,14.17
2018-04-06T01:54:40.186Z,29.43
2018-04-06T01:57:08.912Z,7.93
2018-04-06T01:59:37.632Z,6.00
2018-04-06T02:02:07.055Z,6.43
2018-04-06T02:04:35.877Z,6.53
2018-04-06T02:07:04.500Z,6.50
2018-04-06T02:09:33.220Z,6.80
2018-04-06T02:12:01.942Z,7.40
2018-04-06T02:14:30.663Z,6.97
2018-04-06T02:16:59.386Z,7.73
2018-04-06T02:19:28.113Z,7.23
2018-04-06T02:21:56.735Z,7.47
2018-04-06T02:24:25.361Z,7.53
2018-04-06T02:26:54.674Z,7.20
2018-04-06T02:29:23.500Z,8.07
2018-04-06T02:31:52.332Z,7.93
2018-04-06T02:34:21.603Z,9.73
2018-04-06T02:36:50.268Z,9.00
2018-04-06T02:39:18.986Z,9.23
2018-04-06T02:41:48.315Z,8.60
2018-04-06T02:44:16.957Z,7.97
2018-04-06T02:47:09.612Z,8.43
2018-04-06T02:49:38.360Z,8.10
2018-04-06T02:52:06.976Z,10.17
2018-04-06T02:54:35.622Z,9.43
2018-04-06T02:57:04.403Z,10.00
2018-04-06T02:59:33.018Z,11.27
2018-04-06T03:02:01.770Z,10.20
2018-04-06T03:04:31.005Z,11.13
2018-04-06T03:06:59.815Z,12.70
2018-04-06T03:09:29.439Z,10.53
2018-04-06T03:11:58.160Z,11.20
2018-04-06T03:14:26.896Z,10.93
2018-04-06T03:16:55.511Z,9.57
2018-04-06T03:19:24.227Z,9.67
2018-04-06T03:21:52.948Z,9.53
2018-04-06T03:24:21.486Z,8.73
2018-04-06T03:26:50.152Z,8.37
2018-04-06T03:29:18.830Z,8.70
2018-04-06T03:31:47.438Z,9.20
2018-04-06T03:34:16.155Z,9.57
2018-04-06T03:36:44.777Z,8.83
2018-04-06T03:39:13.398Z,10.03
2018-04-06T03:41:42.353Z,9.47
2018-04-06T03:44:11.054Z,8.67
2018-04-06T03:46:39.678Z,9.63
2018-04-06T03:49:08.385Z,8.80
2018-04-06T03:51:37.010Z,8.90
2018-04-06T03:54:05.811Z,9.77
2018-04-06T03:56:34.554Z,11.67
2018-04-06T03:59:03.375Z,11.97
2018-04-06T04:01:32.800Z,13.33
2018-04-06T04:04:01.443Z,14.47
2018-04-06T04:06:30.146Z,14.70
2018-04-06T04:08:58.964Z,14.63
2018-04-06T04:11:27.603Z,14.10
2018-04-06T04:13:56.320Z,14.90
2018-04-06T04:16:25.069Z,15.33
2018-04-06T04:18:53.687Z,15.37
2018-04-06T04:21:22.291Z,14.10
2018-04-06T04:23:51.096Z,14.17
2018-04-06T04:26:19.722Z,12.83
2018-04-06T04:28:48.421Z,10.87
2018-04-06T04:31:17.006Z,11.03
2018-04-06T04:33:45.782Z,10.70
2018-04-06T04:36:14.404Z,9.23
2018-04-06T04:38:43.118Z,11.37
2018-04-06T04:41:11.706Z,7.90
2018-04-06T04:43:40.276Z,8.23
2018-04-06T04:46:09.794Z,8.63
2018-04-06T04:48:38.414Z,8.10
2018-04-06T04:51:06.995Z,9.33
2018-04-06T04:53:35.560Z,9.30
2018-04-06T04:56:04.182Z,24.23
2018-04-06T04:58:32.733Z,28.07
2018-04-06T05:01:01.389Z,10.67
2018-04-06T05:03:30.145Z,10.47
2018-04-06T05:05:58.926Z,9.97
2018-04-06T05:08:27.568Z,10.17
2018-04-06T05:10:56.209Z,10.20
2018-04-06T05:13:24.947Z,9.57
2018-04-06T05:15:53.530Z,10.50
2018-04-06T05:18:22.777Z,10.23
2018-04-06T05:20:51.381Z,11.20
2018-04-06T05:23:20.092Z,10.40
2018-04-06T05:25:49.160Z,8.97
2018-04-06T05:28:17.773Z,9.40
2018-04-06T05:30:46.386Z,40.53
2018-04-06T05:33:15.104Z,12.57
2018-04-06T05:35:43.753Z,10.20
2018-04-06T05:38:12.293Z,9.10
2018-04-06T05:40:40.934Z,7.33
2018-04-06T05:43:09.592Z,5.13
2018-04-06T05:45:38.313Z,5.97
2018-04-06T05:48:06.884Z,6.93
2018-04-06T05:50:35.657Z,6.00
2018-04-06T05:53:04.285Z,24.83
2018-04-06T05:55:33.503Z,4.87
2018-04-06T05:58:02.306Z,6.57
2018-04-06T06:00:31.049Z,5.30
2018-04-06T06:03:00.470Z,5.77
2018-04-06T06:05:29.092Z,5.03
2018-04-06T06:07:57.815Z,4.60
2018-04-06T06:10:26.436Z,6.03
2018-04-06T06:12:55.065Z,5.30
2018-04-06T06:15:23.779Z,4.70
2018-04-06T06:17:52.535Z,5.40
2018-04-06T06:20:21.324Z,5.87
2018-04-06T06:22:49.951Z,6.30
2018-04-06T06:25:18.646Z,6.17
2018-04-06T06:27:47.395Z,5.97
2018-04-06T06:30:16.011Z,6.90
2018-04-06T06:32:50.735Z,5.80
2018-04-06T06:35:19.478Z,5.63
2018-04-06T06:37:48.194Z,4.47
2018-04-06T06:40:16.916Z,4.10
2018-04-06T06:42:46.246Z,4.00
2018-04-06T06:45:14.963Z,3.57
2018-04-06T06:47:43.583Z,3.40
2018-04-06T06:50:13.009Z,3.30
2018-04-06T06:52:41.731Z,11.80
2018-04-06T06:55:10.453Z,10.17
2018-04-06T06:57:39.080Z,4.07
2018-04-06T07:00:07.708Z,3.73
2018-04-06T07:02:36.416Z,2.40
2018-04-06T07:05:05.141Z,2.67
2018-04-06T07:07:33.688Z,3.20
2018-04-06T07:10:02.482Z,2.90
2018-04-06T07:12:31.204Z,2.57
2018-04-06T07:15:00.027Z,3.20
2018-04-06T07:17:28.748Z,3.07
2018-04-06T07:19:57.777Z,2.87
2018-04-06T07:22:26.391Z,2.93
2018-04-06T07:24:55.013Z,3.20
2018-04-06T07:27:23.654Z,3.40
2018-04-06T07:29:52.295Z,2.70
2018-04-06T07:32:20.887Z,3.00
2018-04-06T07:34:49.602Z,3.10
2018-04-06T07:37:18.341Z,2.70
2018-04-06T07:39:47.245Z,2.63
2018-04-06T07:42:15.866Z,2.57
2018-04-06T07:44:44.590Z,2.47
2018-04-06T07:47:13.321Z,2.27
2018-04-06T07:49:42.032Z,2.87
2018-04-06T07:52:10.684Z,2.97
2018-04-06T07:54:39.475Z,2.97
2018-04-06T07:57:08.245Z,2.70
2018-04-06T07:59:37.220Z,2.80
2018-04-06T08:02:07.547Z,2.60
2018-04-06T08:04:36.277Z,2.80
2018-04-06T08:07:04.991Z,2.63
2018-04-06T08:09:33.620Z,2.70
2018-04-06T08:12:02.358Z,2.90
2018-04-06T08:14:31.058Z,3.30
2018-04-06T08:16:59.783Z,3.00
2018-04-06T08:19:28.501Z,2.90
2018-04-06T08:21:57.226Z,2.63
2018-04-06T08:24:25.845Z,3.40
2018-04-06T08:26:54.431Z,3.13
2018-04-06T08:29:23.991Z,3.13
2018-04-06T08:31:52.592Z,2.83
2018-04-06T08:34:21.333Z,3.17
2018-04-06T08:36:50.055Z,3.47
2018-04-06T08:39:18.739Z,2.77
2018-04-06T08:41:47.381Z,3.37
2018-04-06T08:44:16.127Z,2.83
2018-04-06T08:46:44.845Z,2.27
2018-04-06T08:49:13.463Z,2.70
2018-04-06T08:51:42.184Z,3.00
2018-04-06T08:54:10.889Z,4.07
2018-04-06T08:56:39.631Z,4.20
2018-04-06T08:59:08.352Z,3.30
2018-04-06T09:01:37.073Z,3.47
2018-04-06T09:04:05.799Z,3.13
2018-04-06T09:06:34.418Z,3.30
2018-04-06T09:09:03.206Z,3.87
2018-04-06T09:11:31.833Z,4.13
2018-04-06T09:14:00.585Z,3.77
2018-04-06T09:16:29.202Z,4.00
2018-04-06T09:18:57.928Z,3.83
2018-04-06T09:21:26.553Z,3.73
2018-04-06T09:23:55.371Z,3.70
2018-04-06T09:26:24.090Z,3.57
2018-04-06T09:28:52.735Z,3.97
2018-04-06T09:31:21.292Z,3.50
2018-04-06T09:33:50.059Z,3.77
2018-04-06T09:36:18.681Z,3.90
2018-04-06T09:38:47.847Z,4.10
2018-04-06T09:41:16.538Z,4.23
2018-04-06T09:43:45.231Z,4.60
2018-04-06T09:46:13.966Z,4.37
2018-04-06T09:48:42.508Z,4.27
2018-04-06T09:51:11.211Z,4.37
2018-04-06T09:53:39.930Z,5.10
2018-04-06T09:56:08.491Z,4.60
2018-04-06T09:58:37.175Z,4.03
2018-04-06T10:01:07.604Z,4.87
2018-04-06T10:03:36.183Z,4.17
2018-04-06T10:06:06.225Z,3.97
2018-04-06T10:08:35.974Z,4.83
2018-04-06T10:11:04.861Z,4.83
2018-04-06T10:13:33.502Z,4.30
2018-04-06T10:16:02.140Z,5.30
2018-04-06T10:18:30.695Z,3.57
2018-04-06T10:20:59.450Z,4.27
2018-04-06T10:23:28.128Z,4.20
2018-04-06T10:25:56.726Z,3.70
2018-04-06T10:28:25.357Z,4.20
2018-04-06T10:30:54.072Z,3.90
2018-04-06T10:33:22.791Z,3.67
2018-04-06T10:35:51.513Z,3.73
2018-04-06T10:38:20.738Z,4.00
2018-04-06T10:40:49.463Z,3.50
2018-04-06T10:43:18.181Z,3.73
2018-04-06T10:45:46.804Z,3.83
2018-04-06T10:48:15.526Z,3.70
2018-04-06T10:50:44.107Z,4.67
2018-04-06T10:53:12.742Z,5.03
2018-04-06T10:55:41.596Z,4.60
2018-04-06T10:58:10.426Z,3.83
2018-04-06T11:00:39.134Z,3.43
2018-04-06T11:03:07.855Z,3.20
2018-04-06T11:05:36.579Z,3.80
2018-04-06T11:08:05.399Z,3.23
2018-04-06T11:10:34.038Z,2.43
2018-04-06T11:13:02.743Z,2.80
2018-04-06T11:15:31.464Z,2.80
2018-04-06T11:18:00.188Z,2.80
2018-04-06T11:20:29.994Z,3.20
2018-04-06T11:22:58.558Z,3.10
2018-04-06T11:25:27.254Z,3.40
2018-04-06T11:27:55.858Z,3.00
2018-04-06T11:30:24.601Z,3.70
2018-04-06T11:32:53.319Z,3.90
2018-04-06T11:35:21.849Z,3.47
2018-04-06T11:37:50.476Z,2.93
2018-04-06T11:40:19.026Z,2.97
2018-04-06T11:42:47.606Z,3.23
2018-04-06T11:45:16.328Z,3.10
2018-04-06T11:47:45.049Z,3.10
2018-04-06T11:50:13.775Z,3.13
2018-04-06T11:52:43.196Z,3.07
2018-04-06T11:55:11.823Z,3.03
2018-04-06T11:57:40.539Z,3.30
2018-04-06T12:00:09.363Z,3.43
2018-04-06T12:02:37.982Z,3.57
2018-04-06T12:05:06.609Z,3.00
2018-04-06T12:07:35.321Z,3.20
2018-04-06T12:10:04.150Z,3.10
2018-04-06T12:12:32.869Z,3.50
2018-04-06T12:15:01.493Z,3.37
2018-04-06T12:17:30.058Z,3.50
2018-04-06T12:19:58.805Z,3.30
2018-04-06T12:22:27.493Z,3.13
2018-04-06T12:24:56.186Z,4.17
2018-04-06T12:27:24.743Z,2.70
2018-04-06T12:29:53.420Z,2.73
2018-04-06T12:32:22.042Z,2.80
2018-04-06T12:34:50.765Z,3.80
2018-04-06T12:37:19.394Z,2.70
2018-04-06T12:39:48.107Z,3.10
2018-04-06T12:42:16.657Z,2.90
2018-04-06T12:44:45.350Z,2.90
2018-04-06T12:47:14.774Z,3.20
2018-04-06T12:49:43.497Z,2.80
2018-04-06T12:52:12.221Z,2.57
2018-04-06T12:54:40.942Z,2.90
2018-04-06T12:57:10.489Z,3.27
2018-04-06T12:59:39.187Z,2.77
2018-04-06T13:02:08.110Z,2.10
2018-04-06T13:04:36.840Z,2.60
2018-04-06T13:07:05.427Z,2.60
2018-04-06T13:09:34.022Z,2.57
2018-04-06T13:12:02.606Z,2.47
2018-04-06T13:14:31.223Z,2.10
2018-04-06T13:16:59.938Z,1.80
2018-04-06T13:19:28.560Z,2.03
2018-04-06T13:21:57.385Z,1.63
2018-04-06T13:24:26.105Z,3.97
2018-04-06T13:26:54.828Z,1.80
2018-04-06T13:29:23.651Z,1.73
2018-04-06T13:31:52.297Z,1.70
2018-04-06T13:34:20.953Z,2.00
2018-04-06T13:36:49.612Z,1.93
2018-04-06T13:39:18.642Z,1.90
2018-04-06T13:41:47.215Z,2.00
2018-04-06T13:44:15.893Z,1.80
2018-04-06T13:46:44.614Z,1.90
2018-04-06T13:49:13.224Z,1.90
2018-04-06T13:51:41.946Z,2.13
2018-04-06T13:54:10.666Z,1.80
2018-04-06T13:56:39.393Z,1.63
2018-04-06T13:59:08.026Z,1.97
2018-04-06T14:01:36.646Z,2.00
2018-04-06T14:04:05.252Z,1.90
2018-04-06T14:06:36.081Z,2.40
2018-04-06T14:09:04.804Z,2.10
2018-04-06T14:11:33.603Z,2.27
2018-04-06T14:14:02.347Z,1.90
2018-04-06T14:16:34.982Z,2.50
2018-04-06T14:19:03.707Z,2.30
2018-04-06T14:21:33.572Z,1.70
2018-04-06T14:24:02.360Z,1.83
2018-04-06T14:26:31.080Z,2.07
2018-04-06T14:28:59.772Z,1.80
2018-04-06T14:31:28.344Z,1.70
2018-04-06T14:33:57.107Z,1.97
2018-04-06T14:36:25.865Z,2.27
2018-04-06T14:38:54.499Z,2.03
2018-04-06T14:41:23.187Z,2.13
2018-04-06T14:43:51.926Z,2.00
2018-04-06T14:46:20.756Z,2.53
2018-04-06T14:48:50.278Z,2.20
2018-04-06T14:51:19.003Z,2.30
2018-04-06T14:53:47.626Z,2.10
2018-04-06T14:56:16.339Z,2.43
2018-04-06T14:58:44.979Z,2.40
2018-04-06T15:01:13.584Z,2.73
2018-04-06T15:03:42.229Z,3.60
2018-04-06T15:06:10.825Z,3.70
2018-04-06T15:08:39.456Z,4.30
2018-04-06T15:11:08.173Z,2.77
2018-04-06T15:13:36.890Z,2.80
2018-04-06T15:16:05.614Z,2.83
2018-04-06T15:18:34.438Z,1.90
2018-04-06T15:21:03.156Z,2.97
2018-04-06T15:23:31.880Z,3.43
2018-04-06T15:26:00.524Z,2.70
2018-04-06T15:28:29.999Z,2.50
2018-04-06T15:30:58.653Z,2.67
2018-04-06T15:33:27.369Z,2.73
2018-04-06T15:35:56.050Z,3.00
2018-04-06T15:38:24.692Z,2.70
2018-04-06T15:40:53.440Z,2.53
2018-04-06T15:43:22.004Z,2.50
2018-04-06T15:45:50.776Z,2.73
2018-04-06T15:48:19.403Z,2.43
2018-04-06T15:50:48.123Z,2.90
2018-04-06T15:53:16.701Z,2.50
2018-04-06T15:55:45.432Z,2.23
2018-04-06T15:58:14.109Z,2.63
2018-04-06T16:00:43.123Z,2.90
2018-04-06T16:03:11.839Z,2.30
2018-04-06T16:05:40.914Z,2.70
2018-04-06T16:08:09.591Z,2.67
2018-04-06T16:10:38.983Z,2.40
2018-04-06T16:13:07.723Z,2.87
2018-04-06T16:15:36.343Z,2.90
2018-04-06T16:18:04.966Z,2.40
2018-04-06T16:20:33.590Z,2.63
2018-04-06T16:23:02.235Z,2.27
2018-04-06T16:25:30.855Z,3.03
2018-04-06T16:27:59.649Z,2.93
2018-04-06T16:30:28.374Z,2.87
2018-04-06T16:32:56.992Z,2.87
2018-04-06T16:35:26.117Z,2.97
2018-04-06T16:37:54.697Z,3.40
2018-04-06T16:40:23.565Z,2.90
2018-04-06T16:42:52.283Z,3.67
2018-04-06T16:45:21.003Z,3.70
2018-04-06T16:47:49.727Z,3.90
2018-04-06T16:50:19.126Z,3.30
2018-04-06T16:52:47.742Z,3.47
2018-04-06T16:55:16.459Z,3.63
2018-04-06T16:57:45.017Z,3.60
2018-04-06T17:00:13.738Z,3.37
2018-04-06T17:02:42.458Z,3.60
2018-04-06T17:05:11.180Z,3.77
2018-04-06T17:07:39.901Z,4.03
2018-04-06T17:10:08.527Z,3.30
2018-04-06T17:12:37.247Z,3.50
2018-04-06T17:15:05.883Z,3.47
2018-04-06T17:17:34.488Z,3.63
2018-04-06T17:20:03.114Z,4.30
2018-04-06T17:22:31.833Z,3.40
2018-04-06T17:25:00.470Z,4.80
2018-04-06T17:27:29.178Z,4.30
2018-04-06T17:29:57.796Z,4.17
2018-04-06T17:32:26.395Z,4.00
2018-04-06T17:34:55.143Z,3.27
2018-04-06T17:37:23.862Z,3.37
2018-04-06T17:39:52.441Z,7.13
2018-04-06T17:42:21.137Z,3.83
2018-04-06T17:44:51.536Z,4.97
2018-04-06T17:47:20.255Z,4.63
2018-04-06T17:49:48.893Z,5.17
2018-04-06T17:52:17.738Z,4.43
2018-04-06T17:54:46.358Z,4.47
2018-04-06T17:57:15.949Z,3.73
2018-04-06T17:59:44.664Z,4.60
2018-04-06T18:02:13.356Z,4.03
2018-04-06T18:04:41.974Z,4.30
2018-04-06T18:07:10.721Z,3.93
2018-04-06T18:09:39.382Z,3.50
2018-04-06T18:12:07.980Z,3.50
2018-04-06T18:14:36.609Z,3.40
2018-04-06T18:17:06.997Z,4.00
2018-04-06T18:19:35.722Z,4.37
2018-04-06T18:22:04.468Z,3.67
2018-04-06T18:24:33.895Z,4.57
2018-04-06T18:27:02.634Z,4.80
2018-04-06T18:29:31.335Z,4.13
2018-04-06T18:32:00.059Z,4.30
2018-04-06T18:34:28.688Z,3.93
2018-04-06T18:36:57.405Z,3.87
2018-04-06T18:39:26.040Z,4.33
2018-04-06T18:41:54.844Z,3.40
2018-04-06T18:44:23.568Z,4.20
2018-04-06T18:46:52.235Z,3.40
2018-04-06T18:49:20.809Z,3.83
2018-04-06T18:51:49.530Z,4.10
2018-04-06T18:54:19.155Z,3.87
2018-04-06T18:56:47.877Z,3.97
2018-04-06T18:59:16.706Z,4.00
2018-04-06T19:01:45.421Z,4.00
2018-04-06T19:04:14.026Z,4.33
2018-04-06T19:06:43.765Z,4.27
2018-04-06T19:09:12.493Z,4.00
2018-04-06T19:11:41.151Z,4.53
2018-04-06T19:14:09.936Z,4.20
2018-04-06T19:16:38.658Z,3.97
2018-04-06T19:19:07.390Z,4.10
2018-04-06T19:21:37.919Z,4.73
2018-04-06T19:24:06.528Z,4.37
2018-04-06T19:26:35.171Z,4.73
2018-04-06T19:29:03.871Z,5.17
2018-04-06T19:31:32.558Z,4.90
2018-04-06T19:34:01.318Z,5.10
2018-04-06T19:36:30.199Z,4.77
2018-04-06T19:38:58.962Z,4.70
2018-04-06T19:41:27.592Z,4.70
2018-04-06T19:43:57.010Z,4.67
2018-04-06T19:46:25.637Z,5.17
2018-04-06T19:48:54.554Z,4.30
2018-04-06T19:51:23.173Z,4.97
2018-04-06T19:53:51.892Z,4.10
2018-04-06T19:56:20.532Z,4.27
2018-04-06T19:58:49.235Z,4.57
2018-04-06T20:01:17.957Z,5.10
2018-04-06T20:03:46.693Z,5.83
2018-04-06T20:06:15.418Z,5.13
2018-04-06T20:08:44.024Z,5.10
2018-04-06T20:11:12.657Z,5.27
2018-04-06T20:13:41.383Z,5.27
2018-04-06T20:16:10.089Z,5.20
2018-04-06T20:18:38.728Z,5.20
2018-04-06T20:21:07.531Z,5.30
2018-04-06T20:23:36.153Z,5.23
2018-04-06T20:26:04.876Z,5.77
2018-04-06T20:28:33.566Z,5.70
2018-04-06T20:31:02.218Z,5.20
2018-04-06T20:33:30.874Z,5.77
2018-04-06T20:35:59.543Z,5.10
2018-04-06T20:38:28.128Z,6.33
2018-04-06T20:40:57.013Z,5.63
2018-04-06T20:43:25.608Z,5.97
2018-04-06T20:45:54.317Z,6.23
2018-04-06T20:48:23.073Z,5.60
2018-04-06T20:50:51.896Z,5.33
2018-04-06T20:53:20.616Z,4.83
2018-04-06T20:55:49.337Z,6.07
2018-04-06T20:58:17.966Z,5.50
2018-04-06T21:00:46.681Z,4.70
2018-04-06T21:03:15.402Z,5.47
2018-04-06T21:05:44.325Z,5.43
2018-04-06T21:08:12.884Z,5.50
2018-04-06T21:10:41.568Z,5.47
2018-04-06T21:13:10.190Z,5.63
2018-04-06T21:15:38.911Z,5.97
2018-04-06T21:18:07.547Z,5.57
2018-04-06T21:20:36.169Z,5.43
2018-04-06T21:23:04.980Z,5.60
2018-04-06T21:25:33.699Z,5.53
2018-04-06T21:28:02.424Z,5.80
2018-04-06T21:30:30.983Z,6.53
2018-04-06T21:32:59.753Z,5.33
2018-04-06T21:35:28.592Z,5.73
2018-04-06T21:37:57.308Z,5.17
2018-04-06T21:40:27.735Z,5.33
2018-04-06T21:42:56.442Z,5.10
2018-04-06T21:45:25.279Z,5.03
2018-04-06T21:47:54.005Z,4.77
2018-04-06T21:50:22.687Z,4.23
2018-04-06T21:52:51.360Z,4.57
2018-04-06T21:55:20.807Z,4.43
2018-04-06T21:57:49.443Z,4.40
2018-04-06T22:00:18.214Z,4.43
2018-04-06T22:02:46.948Z,4.10
2018-04-06T22:05:17.162Z,3.90
2018-04-06T22:07:45.766Z,4.03
2018-04-06T22:10:14.519Z,4.43
2018-04-06T22:12:43.329Z,4.00
2018-04-06T22:15:13.100Z,4.53
2018-04-06T22:17:41.877Z,4.00
2018-04-06T22:20:10.406Z,4.33
2018-04-06T22:22:41.756Z,4.10
2018-04-06T22:25:10.452Z,4.57
2018-04-06T22:27:39.203Z,4.33
2018-04-06T22:30:07.896Z,4.77
2018-04-06T22:32:36.514Z,4.90
2018-04-06T22:35:05.072Z,5.17
2018-04-06T22:37:33.669Z,4.53
2018-04-06T22:40:04.087Z,4.67
2018-04-06T22:42:32.706Z,4.67
2018-04-06T22:45:01.431Z,4.23
2018-04-06T22:47:30.056Z,4.93
2018-04-06T22:49:58.682Z,5.00
2018-04-06T22:52:27.292Z,4.83
2018-04-06T22:54:55.974Z,4.90
2018-04-06T22:57:24.743Z,5.57
2018-04-06T22:59:55.163Z,5.40
2018-04-06T23:02:23.887Z,5.27
2018-04-06T23:04:52.570Z,5.10
2018-04-06T23:07:21.334Z,5.20
2018-04-06T23:09:50.054Z,5.80
2018-04-06T23:12:18.668Z,6.57
2018-04-06T23:14:47.396Z,6.00
2018-04-06T23:17:16.019Z,6.03
2018-04-06T23:19:44.673Z,5.83
2018-04-06T23:22:13.277Z,5.93
2018-04-06T23:24:41.993Z,5.50
2018-04-06T23:27:11.407Z,7.00
2018-04-06T23:29:40.237Z,5.67
2018-04-06T23:32:08.951Z,5.20
2018-04-06T23:34:37.677Z,5.73
2018-04-06T23:37:07.215Z,6.10
2018-04-06T23:39:35.918Z,5.50
2018-04-06T23:42:04.539Z,5.03
2018-04-06T23:44:33.261Z,5.30
2018-04-06T23:47:01.886Z,5.77
2018-04-06T23:49:30.606Z,5.00
2018-04-06T23:51:59.328Z,5.63
2018-04-06T23:54:27.957Z,6.00
2018-04-06T23:56:56.673Z,5.73
2018-04-06T23:59:25.393Z,6.07
